sensor_id;sensor_type;location;lat;lon;timestamp;temperature;humidity
71942;DHT22;59997;53.300;-6.260;2023-11-22T00:00:02;9.17;90.00
71942;DHT22;59997;53.300;-6.260;2023-11-22T00:02:28;9.32;89.83
71942;DHT22;59997;53.300;-6.260;2023-11-22T00:04:55;9.30;89.88
71942;DHT22;59997;53.300;-6.260;2023-11-22T00:07:20;9.41;89.71
71942;DHT22;59997;53.300;-6.260;2023-11-22T00:09:47;9.45;89.72
71942;DHT22;59997;53.300;-6.260;2023-11-22T00:12:13;9.46;89.86
71942;DHT22;59997;53.300;-6.260;2023-11-22T00:14:39;9.50;89.81
71942;DHT22;59997;53.300;-6.260;2023-11-22T00:17:04;9.50;89.78
71942;DHT22;59997;53.300;-6.260;2023-11-22T00:19:30;9.52;89.82
71942;DHT22;59997;53.300;-6.260;2023-11-22T00:21:56;9.50;89.97
71942;DHT22;59997;53.300;-6.260;2023-11-22T00:24:22;9.50;89.99
71942;DHT22;59997;53.300;-6.260;2023-11-22T00:26:47;9.46;90.17
71942;DHT22;59997;53.300;-6.260;2023-11-22T00:29:13;9.42;90.17
71942;DHT22;59997;53.300;-6.260;2023-11-22T00:31:38;9.41;90.18
71942;DHT22;59997;53.300;-6.260;2023-11-22T00:34:05;9.34;90.31
71942;DHT22;59997;53.300;-6.260;2023-11-22T00:36:32;9.42;90.25
71942;DHT22;59997;53.300;-6.260;2023-11-22T00:38:57;9.43;90.06
71942;DHT22;59997;53.300;-6.260;2023-11-22T00:41:23;9.35;90.14
71942;DHT22;59997;53.300;-6.260;2023-11-22T00:43:48;9.31;90.11
71942;DHT22;59997;53.300;-6.260;2023-11-22T00:46:14;9.28;90.18
71942;DHT22;59997;53.300;-6.260;2023-11-22T00:48:40;9.21;90.26
71942;DHT22;59997;53.300;-6.260;2023-11-22T00:51:05;9.14;90.35
71942;DHT22;59997;53.300;-6.260;2023-11-22T00:53:34;9.10;90.48
71942;DHT22;59997;53.300;-6.260;2023-11-22T00:56:02;9.08;90.50
71942;DHT22;59997;53.300;-6.260;2023-11-22T00:58:27;9.13;90.42
71942;DHT22;59997;53.300;-6.260;2023-11-22T01:00:52;9.25;90.31
71942;DHT22;59997;53.300;-6.260;2023-11-22T01:03:18;9.27;90.31
71942;DHT22;59997;53.300;-6.260;2023-11-22T01:05:44;9.27;90.35
71942;DHT22;59997;53.300;-6.260;2023-11-22T01:08:12;9.30;90.36
71942;DHT22;59997;53.300;-6.260;2023-11-22T01:10:39;9.34;90.27
71942;DHT22;59997;53.300;-6.260;2023-11-22T01:13:04;9.36;90.36
71942;DHT22;59997;53.300;-6.260;2023-11-22T01:15:30;9.36;90.35
71942;DHT22;59997;53.300;-6.260;2023-11-22T01:17:55;9.48;90.20
71942;DHT22;59997;53.300;-6.260;2023-11-22T01:20:21;9.49;90.22
71942;DHT22;59997;53.300;-6.260;2023-11-22T01:22:48;9.50;90.19
71942;DHT22;59997;53.300;-6.260;2023-11-22T01:25:14;9.55;90.21
71942;DHT22;59997;53.300;-6.260;2023-11-22T01:27:39;9.56;90.17
71942;DHT22;59997;53.300;-6.260;2023-11-22T01:30:05;9.57;90.22
71942;DHT22;59997;53.300;-6.260;2023-11-22T01:32:33;9.59;90.14
71942;DHT22;59997;53.300;-6.260;2023-11-22T01:35:00;9.62;90.15
71942;DHT22;59997;53.300;-6.260;2023-11-22T01:37:25;9.62;90.14
71942;DHT22;59997;53.300;-6.260;2023-11-22T01:39:52;9.67;90.05
71942;DHT22;59997;53.300;-6.260;2023-11-22T01:42:20;9.72;90.05
71942;DHT22;59997;53.300;-6.260;2023-11-22T01:44:46;9.76;89.90
71942;DHT22;59997;53.300;-6.260;2023-11-22T01:47:13;9.79;89.99
71942;DHT22;59997;53.300;-6.260;2023-11-22T01:49:39;9.80;89.99
71942;DHT22;59997;53.300;-6.260;2023-11-22T01:52:05;9.80;90.05
71942;DHT22;59997;53.300;-6.260;2023-11-22T01:54:32;9.79;90.06
71942;DHT22;59997;53.300;-6.260;2023-11-22T01:56:58;9.77;90.10
71942;DHT22;59997;53.300;-6.260;2023-11-22T01:59:25;9.76;90.20
71942;DHT22;59997;53.300;-6.260;2023-11-22T02:01:52;9.72;90.25
71942;DHT22;59997;53.300;-6.260;2023-11-22T02:04:18;9.80;90.27
71942;DHT22;59997;53.300;-6.260;2023-11-22T02:06:44;9.72;90.29
71942;DHT22;59997;53.300;-6.260;2023-11-22T02:09:09;9.70;90.32
71942;DHT22;59997;53.300;-6.260;2023-11-22T02:11:39;9.69;90.34
71942;DHT22;59997;53.300;-6.260;2023-11-22T02:14:04;9.70;90.40
71942;DHT22;59997;53.300;-6.260;2023-11-22T02:16:32;9.67;90.45
71942;DHT22;59997;53.300;-6.260;2023-11-22T02:18:57;9.70;90.41
71942;DHT22;59997;53.300;-6.260;2023-11-22T02:21:23;9.66;90.43
71942;DHT22;59997;53.300;-6.260;2023-11-22T02:23:49;9.65;90.45
71942;DHT22;59997;53.300;-6.260;2023-11-22T02:26:14;9.67;90.37
71942;DHT22;59997;53.300;-6.260;2023-11-22T02:28:43;9.63;90.31
71942;DHT22;59997;53.300;-6.260;2023-11-22T02:31:09;9.63;90.27
71942;DHT22;59997;53.300;-6.260;2023-11-22T02:33:34;9.65;90.27
71942;DHT22;59997;53.300;-6.260;2023-11-22T02:36:01;9.63;90.25
71942;DHT22;59997;53.300;-6.260;2023-11-22T02:38:27;9.62;90.28
71942;DHT22;59997;53.300;-6.260;2023-11-22T02:40:53;9.60;90.26
71942;DHT22;59997;53.300;-6.260;2023-11-22T02:43:19;9.59;90.25
71942;DHT22;59997;53.300;-6.260;2023-11-22T02:45:45;9.63;90.21
71942;DHT22;59997;53.300;-6.260;2023-11-22T02:48:11;9.70;90.12
71942;DHT22;59997;53.300;-6.260;2023-11-22T02:50:36;9.69;90.15
71942;DHT22;59997;53.300;-6.260;2023-11-22T02:53:03;9.65;90.22
71942;DHT22;59997;53.300;-6.260;2023-11-22T02:55:29;9.69;90.14
71942;DHT22;59997;53.300;-6.260;2023-11-22T02:57:54;9.73;90.07
71942;DHT22;59997;53.300;-6.260;2023-11-22T03:00:20;9.69;90.16
71942;DHT22;59997;53.300;-6.260;2023-11-22T03:02:46;9.73;90.09
71942;DHT22;59997;53.300;-6.260;2023-11-22T03:05:13;9.79;89.99
71942;DHT22;59997;53.300;-6.260;2023-11-22T03:07:41;9.82;90.03
71942;DHT22;59997;53.300;-6.260;2023-11-22T03:10:07;9.87;89.97
71942;DHT22;59997;53.300;-6.260;2023-11-22T03:12:33;9.86;90.04
71942;DHT22;59997;53.300;-6.260;2023-11-22T03:14:59;9.86;90.10
71942;DHT22;59997;53.300;-6.260;2023-11-22T03:17:27;9.77;90.16
71942;DHT22;59997;53.300;-6.260;2023-11-22T03:19:54;9.77;90.25
71942;DHT22;59997;53.300;-6.260;2023-11-22T03:22:26;9.82;90.13
71942;DHT22;59997;53.300;-6.260;2023-11-22T03:24:53;9.87;90.09
71942;DHT22;59997;53.300;-6.260;2023-11-22T03:27:19;9.84;90.06
71942;DHT22;59997;53.300;-6.260;2023-11-22T03:29:47;9.87;90.03
71942;DHT22;59997;53.300;-6.260;2023-11-22T03:32:12;9.87;90.07
71942;DHT22;59997;53.300;-6.260;2023-11-22T03:34:38;9.87;90.06
71942;DHT22;59997;53.300;-6.260;2023-11-22T03:37:03;9.91;90.06
71942;DHT22;59997;53.300;-6.260;2023-11-22T03:39:29;9.93;90.15
71942;DHT22;59997;53.300;-6.260;2023-11-22T03:41:55;9.91;90.10
71942;DHT22;59997;53.300;-6.260;2023-11-22T03:44:20;9.91;90.07
71942;DHT22;59997;53.300;-6.260;2023-11-22T03:46:46;9.97;90.09
71942;DHT22;59997;53.300;-6.260;2023-11-22T03:49:11;9.97;90.11
71942;DHT22;59997;53.300;-6.260;2023-11-22T03:51:40;9.91;90.23
71942;DHT22;59997;53.300;-6.260;2023-11-22T03:54:06;9.90;90.28
71942;DHT22;59997;53.300;-6.260;2023-11-22T03:56:32;9.87;90.27
71942;DHT22;59997;53.300;-6.260;2023-11-22T03:58:58;9.80;90.28
71942;DHT22;59997;53.300;-6.260;2023-11-22T04:01:24;9.79;90.28
71942;DHT22;59997;53.300;-6.260;2023-11-22T04:03:50;9.79;90.21
71942;DHT22;59997;53.300;-6.260;2023-11-22T04:06:16;9.76;90.15
71942;DHT22;59997;53.300;-6.260;2023-11-22T04:08:45;9.80;90.12
71942;DHT22;59997;53.300;-6.260;2023-11-22T04:11:14;9.82;90.03
71942;DHT22;59997;53.300;-6.260;2023-11-22T04:13:39;9.82;90.01
71942;DHT22;59997;53.300;-6.260;2023-11-22T04:16:08;9.89;89.93
71942;DHT22;59997;53.300;-6.260;2023-11-22T04:18:34;9.95;89.84
71942;DHT22;59997;53.300;-6.260;2023-11-22T04:21:01;9.97;89.88
71942;DHT22;59997;53.300;-6.260;2023-11-22T04:23:29;10.00;89.91
71942;DHT22;59997;53.300;-6.260;2023-11-22T04:25:55;10.02;89.90
71942;DHT22;59997;53.300;-6.260;2023-11-22T04:28:21;10.01;89.96
71942;DHT22;59997;53.300;-6.260;2023-11-22T04:30:46;10.04;89.94
71942;DHT22;59997;53.300;-6.260;2023-11-22T04:33:12;10.04;90.00
71942;DHT22;59997;53.300;-6.260;2023-11-22T04:35:37;10.11;89.92
71942;DHT22;59997;53.300;-6.260;2023-11-22T04:38:04;10.07;90.00
71942;DHT22;59997;53.300;-6.260;2023-11-22T04:40:30;10.09;89.98
71942;DHT22;59997;53.300;-6.260;2023-11-22T04:42:55;10.07;90.04
71942;DHT22;59997;53.300;-6.260;2023-11-22T04:45:21;10.07;90.11
71942;DHT22;59997;53.300;-6.260;2023-11-22T04:47:46;10.02;90.13
71942;DHT22;59997;53.300;-6.260;2023-11-22T04:50:12;10.01;90.20
71942;DHT22;59997;53.300;-6.260;2023-11-22T04:52:38;10.00;90.20
71942;DHT22;59997;53.300;-6.260;2023-11-22T04:55:04;9.93;90.23
71942;DHT22;59997;53.300;-6.260;2023-11-22T04:57:30;9.84;90.21
71942;DHT22;59997;53.300;-6.260;2023-11-22T04:59:56;9.89;90.10
71942;DHT22;59997;53.300;-6.260;2023-11-22T05:02:23;9.93;90.04
71942;DHT22;59997;53.300;-6.260;2023-11-22T05:04:48;9.97;89.92
71942;DHT22;59997;53.300;-6.260;2023-11-22T05:07:15;9.97;89.89
71942;DHT22;59997;53.300;-6.260;2023-11-22T05:09:41;10.07;89.83
71942;DHT22;59997;53.300;-6.260;2023-11-22T05:12:09;10.12;89.80
71942;DHT22;59997;53.300;-6.260;2023-11-22T05:14:35;10.15;89.85
71942;DHT22;59997;53.300;-6.260;2023-11-22T05:17:00;10.17;89.91
71942;DHT22;59997;53.300;-6.260;2023-11-22T05:19:26;10.24;89.90
71942;DHT22;59997;53.300;-6.260;2023-11-22T05:21:51;10.25;89.92
71942;DHT22;59997;53.300;-6.260;2023-11-22T05:24:17;10.25;90.00
71942;DHT22;59997;53.300;-6.260;2023-11-22T05:26:42;10.24;90.00
71942;DHT22;59997;53.300;-6.260;2023-11-22T05:29:08;10.22;90.12
71942;DHT22;59997;53.300;-6.260;2023-11-22T05:31:33;10.26;90.04
71942;DHT22;59997;53.300;-6.260;2023-11-22T05:33:58;10.28;90.11
71942;DHT22;59997;53.300;-6.260;2023-11-22T05:36:24;10.32;90.03
71942;DHT22;59997;53.300;-6.260;2023-11-22T05:38:49;10.43;89.88
71942;DHT22;59997;53.300;-6.260;2023-11-22T05:41:15;10.48;89.83
71942;DHT22;59997;53.300;-6.260;2023-11-22T05:43:41;10.49;89.82
71942;DHT22;59997;53.300;-6.260;2023-11-22T05:46:08;10.46;89.91
71942;DHT22;59997;53.300;-6.260;2023-11-22T05:48:33;10.48;89.99
71942;DHT22;59997;53.300;-6.260;2023-11-22T05:50:59;10.49;90.00
71942;DHT22;59997;53.300;-6.260;2023-11-22T05:53:25;10.53;89.95
71942;DHT22;59997;53.300;-6.260;2023-11-22T05:55:50;10.52;90.03
71942;DHT22;59997;53.300;-6.260;2023-11-22T05:58:18;10.55;90.03
71942;DHT22;59997;53.300;-6.260;2023-11-22T06:00:46;10.50;90.09
71942;DHT22;59997;53.300;-6.260;2023-11-22T06:03:13;10.52;90.15
71942;DHT22;59997;53.300;-6.260;2023-11-22T06:05:41;10.55;90.15
71942;DHT22;59997;53.300;-6.260;2023-11-22T06:08:07;10.57;90.17
71942;DHT22;59997;53.300;-6.260;2023-11-22T06:10:34;10.48;90.25
71942;DHT22;59997;53.300;-6.260;2023-11-22T06:13:00;10.46;90.31
71942;DHT22;59997;53.300;-6.260;2023-11-22T06:15:25;10.50;90.26
71942;DHT22;59997;53.300;-6.260;2023-11-22T06:17:51;10.50;90.26
71942;DHT22;59997;53.300;-6.260;2023-11-22T06:20:16;10.50;90.27
71942;DHT22;59997;53.300;-6.260;2023-11-22T06:22:42;10.49;90.31
71942;DHT22;59997;53.300;-6.260;2023-11-22T06:25:11;10.49;90.32
71942;DHT22;59997;53.300;-6.260;2023-11-22T06:27:38;10.50;90.31
71942;DHT22;59997;53.300;-6.260;2023-11-22T06:30:04;10.49;90.32
71942;DHT22;59997;53.300;-6.260;2023-11-22T06:32:31;10.50;90.35
71942;DHT22;59997;53.300;-6.260;2023-11-22T06:34:57;10.48;90.37
71942;DHT22;59997;53.300;-6.260;2023-11-22T06:37:23;10.50;90.35
71942;DHT22;59997;53.300;-6.260;2023-11-22T06:39:48;10.48;90.26
71942;DHT22;59997;53.300;-6.260;2023-11-22T06:42:14;10.48;90.34
71942;DHT22;59997;53.300;-6.260;2023-11-22T06:44:39;10.49;90.31
71942;DHT22;59997;53.300;-6.260;2023-11-22T06:47:05;10.50;90.28
71942;DHT22;59997;53.300;-6.260;2023-11-22T06:49:32;10.50;90.27
71942;DHT22;59997;53.300;-6.260;2023-11-22T06:51:58;10.49;90.29
71942;DHT22;59997;53.300;-6.260;2023-11-22T06:54:23;10.50;90.23
71942;DHT22;59997;53.300;-6.260;2023-11-22T06:56:49;10.48;90.21
71942;DHT22;59997;53.300;-6.260;2023-11-22T06:59:16;10.46;90.24
71942;DHT22;59997;53.300;-6.260;2023-11-22T07:01:43;10.53;90.18
71942;DHT22;59997;53.300;-6.260;2023-11-22T07:07:49;10.50;90.20
71942;DHT22;59997;53.300;-6.260;2023-11-22T07:10:14;10.49;90.18
71942;DHT22;59997;53.300;-6.260;2023-11-22T07:12:40;10.49;90.17
71942;DHT22;59997;53.300;-6.260;2023-11-22T07:15:08;10.45;90.13
71942;DHT22;59997;53.300;-6.260;2023-11-22T07:17:35;10.46;90.12
71942;DHT22;59997;53.300;-6.260;2023-11-22T07:20:00;10.45;90.11
71942;DHT22;59997;53.300;-6.260;2023-11-22T07:22:26;10.45;90.08
71942;DHT22;59997;53.300;-6.260;2023-11-22T07:24:52;10.48;90.06
71942;DHT22;59997;53.300;-6.260;2023-11-22T07:27:19;10.43;90.04
71942;DHT22;59997;53.300;-6.260;2023-11-22T07:29:46;10.50;89.93
71942;DHT22;59997;53.300;-6.260;2023-11-22T07:32:12;10.52;89.89
71942;DHT22;59997;53.300;-6.260;2023-11-22T07:34:39;10.56;89.90
71942;DHT22;59997;53.300;-6.260;2023-11-22T07:37:05;10.56;89.86
71942;DHT22;59997;53.300;-6.260;2023-11-22T07:39:32;10.55;89.90
71942;DHT22;59997;53.300;-6.260;2023-11-22T07:41:58;10.57;89.92
71942;DHT22;59997;53.300;-6.260;2023-11-22T07:44:24;10.63;89.83
71942;DHT22;59997;53.300;-6.260;2023-11-22T07:46:50;10.70;89.77
71942;DHT22;59997;53.300;-6.260;2023-11-22T07:49:19;10.73;89.71
71942;DHT22;59997;53.300;-6.260;2023-11-22T07:51:45;10.74;89.72
71942;DHT22;59997;53.300;-6.260;2023-11-22T07:54:11;10.78;89.73
71942;DHT22;59997;53.300;-6.260;2023-11-22T07:56:51;10.81;89.62
71942;DHT22;59997;53.300;-6.260;2023-11-22T07:59:18;10.83;89.77
71942;DHT22;59997;53.300;-6.260;2023-11-22T08:01:44;10.81;89.84
71942;DHT22;59997;53.300;-6.260;2023-11-22T08:04:09;10.84;89.89
71942;DHT22;59997;53.300;-6.260;2023-11-22T08:06:35;10.87;89.90
71942;DHT22;59997;53.300;-6.260;2023-11-22T08:09:00;10.80;90.01
71942;DHT22;59997;53.300;-6.260;2023-11-22T08:11:30;10.83;89.96
71942;DHT22;59997;53.300;-6.260;2023-11-22T08:13:57;10.77;89.96
71942;DHT22;59997;53.300;-6.260;2023-11-22T08:16:24;10.74;90.01
71942;DHT22;59997;53.300;-6.260;2023-11-22T08:18:50;10.81;89.97
71942;DHT22;59997;53.300;-6.260;2023-11-22T08:21:16;10.85;89.90
71942;DHT22;59997;53.300;-6.260;2023-11-22T08:23:41;10.84;89.92
71942;DHT22;59997;53.300;-6.260;2023-11-22T08:26:07;10.87;89.88
71942;DHT22;59997;53.300;-6.260;2023-11-22T08:28:35;10.85;89.88
71942;DHT22;59997;53.300;-6.260;2023-11-22T08:31:00;10.85;89.91
71942;DHT22;59997;53.300;-6.260;2023-11-22T08:33:29;10.90;89.91
71942;DHT22;59997;53.300;-6.260;2023-11-22T08:35:55;10.91;89.89
71942;DHT22;59997;53.300;-6.260;2023-11-22T08:38:25;10.88;89.93
71942;DHT22;59997;53.300;-6.260;2023-11-22T08:40:53;10.87;89.94
71942;DHT22;59997;53.300;-6.260;2023-11-22T08:43:20;10.94;89.95
71942;DHT22;59997;53.300;-6.260;2023-11-22T08:45:51;11.00;89.93
71942;DHT22;59997;53.300;-6.260;2023-11-22T08:48:17;11.02;89.90
71942;DHT22;59997;53.300;-6.260;2023-11-22T08:50:42;11.10;89.90
71942;DHT22;59997;53.300;-6.260;2023-11-22T08:53:10;11.10;89.91
71942;DHT22;59997;53.300;-6.260;2023-11-22T08:55:35;11.19;89.83
71942;DHT22;59997;53.300;-6.260;2023-11-22T08:58:01;11.28;89.85
71942;DHT22;59997;53.300;-6.260;2023-11-22T09:00:26;11.33;89.88
71942;DHT22;59997;53.300;-6.260;2023-11-22T09:02:54;11.37;89.85
71942;DHT22;59997;53.300;-6.260;2023-11-22T09:05:22;11.37;89.90
71942;DHT22;59997;53.300;-6.260;2023-11-22T09:07:48;11.44;89.95
71942;DHT22;59997;53.300;-6.260;2023-11-22T09:10:14;11.49;89.94
71942;DHT22;59997;53.300;-6.260;2023-11-22T09:12:42;11.53;89.92
71942;DHT22;59997;53.300;-6.260;2023-11-22T09:15:13;11.57;89.85
71942;DHT22;59997;53.300;-6.260;2023-11-22T09:17:42;11.62;89.82
71942;DHT22;59997;53.300;-6.260;2023-11-22T09:20:17;11.66;89.93
71942;DHT22;59997;53.300;-6.260;2023-11-22T09:22:50;11.66;89.97
71942;DHT22;59997;53.300;-6.260;2023-11-22T09:25:16;11.69;89.96
71942;DHT22;59997;53.300;-6.260;2023-11-22T09:27:44;11.66;89.96
71942;DHT22;59997;53.300;-6.260;2023-11-22T09:30:14;11.67;90.06
71942;DHT22;59997;53.300;-6.260;2023-11-22T09:32:47;11.63;90.05
71942;DHT22;59997;53.300;-6.260;2023-11-22T09:35:14;11.69;90.10
71942;DHT22;59997;53.300;-6.260;2023-11-22T09:37:41;11.60;90.15
71942;DHT22;59997;53.300;-6.260;2023-11-22T09:40:10;11.69;90.20
71942;DHT22;59997;53.300;-6.260;2023-11-22T09:42:37;11.63;90.23
71942;DHT22;59997;53.300;-6.260;2023-11-22T09:45:03;11.63;90.34
71942;DHT22;59997;53.300;-6.260;2023-11-22T09:47:32;11.64;90.39
71942;DHT22;59997;53.300;-6.260;2023-11-22T09:50:00;11.56;90.42
71942;DHT22;59997;53.300;-6.260;2023-11-22T09:52:28;11.56;90.31
71942;DHT22;59997;53.300;-6.260;2023-11-22T09:54:55;11.57;90.23
71942;DHT22;59997;53.300;-6.260;2023-11-22T09:57:22;11.64;90.26
71942;DHT22;59997;53.300;-6.260;2023-11-22T09:59:49;11.66;90.32
71942;DHT22;59997;53.300;-6.260;2023-11-22T10:02:17;11.69;90.26
71942;DHT22;59997;53.300;-6.260;2023-11-22T10:04:43;11.75;90.29
71942;DHT22;59997;53.300;-6.260;2023-11-22T10:07:09;11.70;90.22
71942;DHT22;59997;53.300;-6.260;2023-11-22T10:09:35;11.64;90.30
71942;DHT22;59997;53.300;-6.260;2023-11-22T10:12:03;11.66;90.29
71942;DHT22;59997;53.300;-6.260;2023-11-22T10:14:30;11.71;90.30
71942;DHT22;59997;53.300;-6.260;2023-11-22T10:17:00;11.75;90.27
71942;DHT22;59997;53.300;-6.260;2023-11-22T10:19:26;11.74;90.25
71942;DHT22;59997;53.300;-6.260;2023-11-22T10:22:08;11.74;90.16
71942;DHT22;59997;53.300;-6.260;2023-11-22T10:24:35;11.78;90.22
71942;DHT22;59997;53.300;-6.260;2023-11-22T10:27:02;11.73;90.37
71942;DHT22;59997;53.300;-6.260;2023-11-22T10:29:28;11.75;90.40
71942;DHT22;59997;53.300;-6.260;2023-11-22T10:31:54;11.73;90.32
71942;DHT22;59997;53.300;-6.260;2023-11-22T10:34:23;11.71;90.33
71942;DHT22;59997;53.300;-6.260;2023-11-22T10:36:49;11.78;90.12
71942;DHT22;59997;53.300;-6.260;2023-11-22T10:39:19;11.82;90.06
71942;DHT22;59997;53.300;-6.260;2023-11-22T10:41:45;11.87;90.22
71942;DHT22;59997;53.300;-6.260;2023-11-22T10:44:11;11.87;90.18
71942;DHT22;59997;53.300;-6.260;2023-11-22T10:46:39;11.80;90.29
71942;DHT22;59997;53.300;-6.260;2023-11-22T10:49:05;11.78;90.42
71942;DHT22;59997;53.300;-6.260;2023-11-22T10:51:32;11.81;90.33
71942;DHT22;59997;53.300;-6.260;2023-11-22T10:53:59;11.91;90.20
71942;DHT22;59997;53.300;-6.260;2023-11-22T10:56:37;11.97;90.23
71942;DHT22;59997;53.300;-6.260;2023-11-22T10:59:09;11.92;90.20
71942;DHT22;59997;53.300;-6.260;2023-11-22T11:01:35;11.95;90.25
71942;DHT22;59997;53.300;-6.260;2023-11-22T11:04:03;11.98;90.33
71942;DHT22;59997;53.300;-6.260;2023-11-22T11:06:34;11.87;90.41
71942;DHT22;59997;53.300;-6.260;2023-11-22T11:09:03;11.88;90.43
71942;DHT22;59997;53.300;-6.260;2023-11-22T11:11:35;11.89;90.36
71942;DHT22;59997;53.300;-6.260;2023-11-22T11:14:06;11.91;90.13
71942;DHT22;59997;53.300;-6.260;2023-11-22T11:16:35;11.98;90.15
71942;DHT22;59997;53.300;-6.260;2023-11-22T11:19:15;12.02;90.14
71942;DHT22;59997;53.300;-6.260;2023-11-22T11:21:43;12.06;90.10
71942;DHT22;59997;53.300;-6.260;2023-11-22T11:24:08;11.94;90.28
71942;DHT22;59997;53.300;-6.260;2023-11-22T11:26:34;11.95;90.44
71942;DHT22;59997;53.300;-6.260;2023-11-22T11:29:00;11.92;90.39
71942;DHT22;59997;53.300;-6.260;2023-11-22T11:31:38;11.95;90.34
71942;DHT22;59997;53.300;-6.260;2023-11-22T11:34:08;11.91;90.27
71942;DHT22;59997;53.300;-6.260;2023-11-22T11:36:33;11.94;90.19
71942;DHT22;59997;53.300;-6.260;2023-11-22T11:39:05;12.04;90.25
71942;DHT22;59997;53.300;-6.260;2023-11-22T11:41:34;11.87;90.55
71942;DHT22;59997;53.300;-6.260;2023-11-22T11:44:03;11.92;90.54
71942;DHT22;59997;53.300;-6.260;2023-11-22T11:46:30;11.81;90.49
71942;DHT22;59997;53.300;-6.260;2023-11-22T11:48:56;11.78;90.42
71942;DHT22;59997;53.300;-6.260;2023-11-22T11:51:26;11.75;90.28
71942;DHT22;59997;53.300;-6.260;2023-11-22T11:53:52;11.77;90.07
71942;DHT22;59997;53.300;-6.260;2023-11-22T11:56:19;11.78;90.04
71942;DHT22;59997;53.300;-6.260;2023-11-22T11:58:45;11.77;90.06
71942;DHT22;59997;53.300;-6.260;2023-11-22T12:01:18;11.78;89.94
71942;DHT22;59997;53.300;-6.260;2023-11-22T12:03:46;11.78;89.90
71942;DHT22;59997;53.300;-6.260;2023-11-22T12:06:15;11.77;89.77
71942;DHT22;59997;53.300;-6.260;2023-11-22T12:08:42;11.80;89.79
71942;DHT22;59997;53.300;-6.260;2023-11-22T12:11:08;11.81;89.88
71942;DHT22;59997;53.300;-6.260;2023-11-22T12:13:36;11.78;89.84
71942;DHT22;59997;53.300;-6.260;2023-11-22T12:16:05;11.80;89.94
71942;DHT22;59997;53.300;-6.260;2023-11-22T12:18:43;11.85;89.91
71942;DHT22;59997;53.300;-6.260;2023-11-22T12:21:09;11.78;89.88
71942;DHT22;59997;53.300;-6.260;2023-11-22T12:23:42;11.78;89.91
71942;DHT22;59997;53.300;-6.260;2023-11-22T12:26:19;11.87;89.86
71942;DHT22;59997;53.300;-6.260;2023-11-22T12:28:46;11.91;89.84
71942;DHT22;59997;53.300;-6.260;2023-11-22T12:31:15;11.92;89.89
71942;DHT22;59997;53.300;-6.260;2023-11-22T12:33:42;11.88;89.70
71942;DHT22;59997;53.300;-6.260;2023-11-22T12:36:10;11.92;89.87
71942;DHT22;59997;53.300;-6.260;2023-11-22T12:38:40;11.91;89.87
71942;DHT22;59997;53.300;-6.260;2023-11-22T12:41:06;11.94;89.88
71942;DHT22;59997;53.300;-6.260;2023-11-22T12:43:33;11.92;89.93
71942;DHT22;59997;53.300;-6.260;2023-11-22T12:46:04;11.95;89.86
71942;DHT22;59997;53.300;-6.260;2023-11-22T12:48:30;11.94;89.83
71942;DHT22;59997;53.300;-6.260;2023-11-22T12:50:56;11.99;89.87
71942;DHT22;59997;53.300;-6.260;2023-11-22T12:53:23;12.01;89.77
71942;DHT22;59997;53.300;-6.260;2023-11-22T12:55:52;12.04;89.74
71942;DHT22;59997;53.300;-6.260;2023-11-22T12:58:19;12.06;89.74
71942;DHT22;59997;53.300;-6.260;2023-11-22T13:00:46;12.12;89.72
71942;DHT22;59997;53.300;-6.260;2023-11-22T13:03:13;12.12;89.64
71942;DHT22;59997;53.300;-6.260;2023-11-22T13:05:43;12.18;89.68
71942;DHT22;59997;53.300;-6.260;2023-11-22T13:08:10;12.22;89.72
71942;DHT22;59997;53.300;-6.260;2023-11-22T13:10:46;12.22;89.66
71942;DHT22;59997;53.300;-6.260;2023-11-22T13:13:20;12.34;89.55
71942;DHT22;59997;53.300;-6.260;2023-11-22T13:15:46;12.39;89.35
71942;DHT22;59997;53.300;-6.260;2023-11-22T13:18:11;12.41;89.41
71942;DHT22;59997;53.300;-6.260;2023-11-22T13:20:37;12.44;89.33
71942;DHT22;59997;53.300;-6.260;2023-11-22T13:23:06;12.47;89.31
71942;DHT22;59997;53.300;-6.260;2023-11-22T13:25:32;12.41;89.51
71942;DHT22;59997;53.300;-6.260;2023-11-22T13:27:58;12.44;89.74
71942;DHT22;59997;53.300;-6.260;2023-11-22T13:30:24;12.39;89.90
71942;DHT22;59997;53.300;-6.260;2023-11-22T13:32:50;12.44;90.00
71942;DHT22;59997;53.300;-6.260;2023-11-22T13:35:16;12.47;90.01
71942;DHT22;59997;53.300;-6.260;2023-11-22T13:37:46;12.37;89.98
71942;DHT22;59997;53.300;-6.260;2023-11-22T13:40:14;12.40;90.00
71942;DHT22;59997;53.300;-6.260;2023-11-22T13:42:47;12.37;90.22
71942;DHT22;59997;53.300;-6.260;2023-11-22T13:45:14;12.30;90.27
71942;DHT22;59997;53.300;-6.260;2023-11-22T13:47:53;12.25;90.38
71942;DHT22;59997;53.300;-6.260;2023-11-22T13:50:30;12.19;90.35
71942;DHT22;59997;53.300;-6.260;2023-11-22T13:52:56;12.15;90.34
71942;DHT22;59997;53.300;-6.260;2023-11-22T13:55:23;12.09;90.30
71942;DHT22;59997;53.300;-6.260;2023-11-22T13:57:50;12.05;90.15
71942;DHT22;59997;53.300;-6.260;2023-11-22T14:00:17;12.06;90.07
71942;DHT22;59997;53.300;-6.260;2023-11-22T14:02:52;12.09;90.01
71942;DHT22;59997;53.300;-6.260;2023-11-22T14:05:18;12.13;90.01
71942;DHT22;59997;53.300;-6.260;2023-11-22T14:07:44;12.15;90.01
71942;DHT22;59997;53.300;-6.260;2023-11-22T14:10:10;12.15;89.93
71942;DHT22;59997;53.300;-6.260;2023-11-22T14:12:37;12.12;90.03
71942;DHT22;59997;53.300;-6.260;2023-11-22T14:15:03;12.12;90.01
71942;DHT22;59997;53.300;-6.260;2023-11-22T14:17:32;12.06;90.12
71942;DHT22;59997;53.300;-6.260;2023-11-22T14:19:58;12.05;90.25
71942;DHT22;59997;53.300;-6.260;2023-11-22T14:22:24;12.02;90.39
71942;DHT22;59997;53.300;-6.260;2023-11-22T14:24:50;11.98;90.47
71942;DHT22;59997;53.300;-6.260;2023-11-22T14:27:19;11.89;90.67
71942;DHT22;59997;53.300;-6.260;2023-11-22T14:29:46;11.85;90.70
71942;DHT22;59997;53.300;-6.260;2023-11-22T14:32:14;11.78;90.87
71942;DHT22;59997;53.300;-6.260;2023-11-22T14:34:40;11.77;90.92
71942;DHT22;59997;53.300;-6.260;2023-11-22T14:37:11;11.75;91.03
71942;DHT22;59997;53.300;-6.260;2023-11-22T14:39:38;11.73;90.88
71942;DHT22;59997;53.300;-6.260;2023-11-22T14:42:04;11.70;90.74
71942;DHT22;59997;53.300;-6.260;2023-11-22T14:44:31;11.77;90.66
71942;DHT22;59997;53.300;-6.260;2023-11-22T14:46:57;11.75;90.68
71942;DHT22;59997;53.300;-6.260;2023-11-22T14:49:24;11.77;90.53
71942;DHT22;59997;53.300;-6.260;2023-11-22T14:51:50;11.78;90.41
71942;DHT22;59997;53.300;-6.260;2023-11-22T14:54:16;11.77;90.55
71942;DHT22;59997;53.300;-6.260;2023-11-22T14:56:41;11.75;90.44
71942;DHT22;59997;53.300;-6.260;2023-11-22T14:59:07;11.81;90.42
71942;DHT22;59997;53.300;-6.260;2023-11-22T15:01:33;11.81;90.34
71942;DHT22;59997;53.300;-6.260;2023-11-22T15:03:58;11.81;90.38
71942;DHT22;59997;53.300;-6.260;2023-11-22T15:06:24;11.78;90.25
71942;DHT22;59997;53.300;-6.260;2023-11-22T15:08:50;11.81;90.21
71942;DHT22;59997;53.300;-6.260;2023-11-22T15:11:16;11.80;90.32
71942;DHT22;59997;53.300;-6.260;2023-11-22T15:13:44;11.77;90.36
71942;DHT22;59997;53.300;-6.260;2023-11-22T15:16:09;11.74;90.46
71942;DHT22;59997;53.300;-6.260;2023-11-22T15:18:41;11.80;90.28
71942;DHT22;59997;53.300;-6.260;2023-11-22T15:21:06;11.77;90.29